sensor_id;sensor_type;location;lat;lon;timestamp;P1;durP1;ratioP1;P2;durP2;ratioP2
70067;SDS011;57425;51.616;6.680;2023-07-29T00:01:50;3.55;;;0.98;;
70067;SDS011;57425;51.616;6.680;2023-07-29T00:04:16;1.30;;;0.93;;
70067;SDS011;57425;51.616;6.680;2023-07-29T00:06:42;3.28;;;1.17;;
70067;SDS011;57425;51.616;6.680;2023-07-29T00:09:07;0.88;;;0.75;;
70067;SDS011;57425;51.616;6.680;2023-07-29T00:11:33;1.30;;;0.98;;
70067;SDS011;57425;51.616;6.680;2023-07-29T00:14:00;7.50;;;0.98;;
70067;SDS011;57425;51.616;6.680;2023-07-29T00:16:26;3.90;;;1.02;;
70067;SDS011;57425;51.616;6.680;2023-07-29T00:18:51;1.60;;;1.00;;
70067;SDS011;57425;51.616;6.680;2023-07-29T00:21:17;1.00;;;0.90;;
70067;SDS011;57425;51.616;6.680;2023-07-29T00:23:43;1.10;;;1.00;;
70067;SDS011;57425;51.616;6.680;2023-07-29T00:26:08;1.13;;;0.70;;
70067;SDS011;57425;51.616;6.680;2023-07-29T00:28:34;1.55;;;1.17;;
70067;SDS011;57425;51.616;6.680;2023-07-29T00:30:59;1.02;;;0.80;;
70067;SDS011;57425;51.616;6.680;2023-07-29T00:33:25;1.95;;;0.98;;
70067;SDS011;57425;51.616;6.680;2023-07-29T00:35:51;4.85;;;1.02;;
70067;SDS011;57425;51.616;6.680;2023-07-29T00:38:16;1.58;;;0.98;;
70067;SDS011;57425;51.616;6.680;2023-07-29T00:40:42;3.25;;;0.63;;
70067;SDS011;57425;51.616;6.680;2023-07-29T00:43:07;1.45;;;1.10;;
70067;SDS011;57425;51.616;6.680;2023-07-29T00:45:33;1.52;;;1.10;;
70067;SDS011;57425;51.616;6.680;2023-07-29T00:47:59;1.05;;;0.85;;
70067;SDS011;57425;51.616;6.680;2023-07-29T00:50:26;1.38;;;0.68;;
70067;SDS011;57425;51.616;6.680;2023-07-29T00:52:54;0.90;;;0.70;;
70067;SDS011;57425;51.616;6.680;2023-07-29T00:55:20;5.10;;;1.13;;
70067;SDS011;57425;51.616;6.680;2023-07-29T00:57:46;1.00;;;0.75;;
70067;SDS011;57425;51.616;6.680;2023-07-29T01:00:15;1.88;;;1.42;;
70067;SDS011;57425;51.616;6.680;2023-07-29T01:02:42;5.70;;;1.10;;
70067;SDS011;57425;51.616;6.680;2023-07-29T01:05:08;1.27;;;0.80;;
70067;SDS011;57425;51.616;6.680;2023-07-29T01:07:39;1.15;;;1.02;;
70067;SDS011;57425;51.616;6.680;2023-07-29T01:10:22;1.40;;;0.90;;
70067;SDS011;57425;51.616;6.680;2023-07-29T01:13:14;1.15;;;0.70;;
70067;SDS011;57425;51.616;6.680;2023-07-29T01:17:03;2.25;;;1.88;;
70067;SDS011;57425;51.616;6.680;2023-07-29T01:19:15;1.25;;;0.85;;
70067;SDS011;57425;51.616;6.680;2023-07-29T01:22:06;3.90;;;0.95;;
70067;SDS011;57425;51.616;6.680;2023-07-29T01:24:33;1.33;;;1.10;;
70067;SDS011;57425;51.616;6.680;2023-07-29T01:26:59;0.95;;;0.85;;
70067;SDS011;57425;51.616;6.680;2023-07-29T01:29:26;1.05;;;0.77;;
70067;SDS011;57425;51.616;6.680;2023-07-29T01:31:53;1.67;;;1.00;;
70067;SDS011;57425;51.616;6.680;2023-07-29T01:34:26;6.93;;;1.23;;
70067;SDS011;57425;51.616;6.680;2023-07-29T01:36:57;1.17;;;0.70;;
70067;SDS011;57425;51.616;6.680;2023-07-29T01:39:27;1.23;;;0.93;;
70067;SDS011;57425;51.616;6.680;2023-07-29T01:41:57;5.78;;;0.98;;
70067;SDS011;57425;51.616;6.680;2023-07-29T01:44:23;1.30;;;0.80;;
70067;SDS011;57425;51.616;6.680;2023-07-29T01:46:49;1.83;;;0.77;;
70067;SDS011;57425;51.616;6.680;2023-07-29T01:49:15;0.98;;;0.75;;
70067;SDS011;57425;51.616;6.680;2023-07-29T01:51:40;1.05;;;0.90;;
70067;SDS011;57425;51.616;6.680;2023-07-29T01:54:06;0.73;;;0.70;;
70067;SDS011;57425;51.616;6.680;2023-07-29T01:56:32;1.00;;;0.85;;
70067;SDS011;57425;51.616;6.680;2023-07-29T01:58:57;1.05;;;0.90;;
70067;SDS011;57425;51.616;6.680;2023-07-29T02:01:23;1.67;;;0.93;;
70067;SDS011;57425;51.616;6.680;2023-07-29T02:03:48;0.88;;;0.77;;
70067;SDS011;57425;51.616;6.680;2023-07-29T02:06:19;1.10;;;0.85;;
70067;SDS011;57425;51.616;6.680;2023-07-29T02:08:45;0.93;;;0.80;;
70067;SDS011;57425;51.616;6.680;2023-07-29T02:11:11;1.35;;;0.88;;
70067;SDS011;57425;51.616;6.680;2023-07-29T02:13:36;3.63;;;1.02;;
70067;SDS011;57425;51.616;6.680;2023-07-29T02:16:02;6.18;;;0.77;;
70067;SDS011;57425;51.616;6.680;2023-07-29T02:18:28;1.23;;;0.73;;
70067;SDS011;57425;51.616;6.680;2023-07-29T02:20:53;2.03;;;0.98;;
70067;SDS011;57425;51.616;6.680;2023-07-29T02:23:19;0.82;;;0.80;;
70067;SDS011;57425;51.616;6.680;2023-07-29T02:25:45;1.17;;;0.90;;
70067;SDS011;57425;51.616;6.680;2023-07-29T02:28:10;1.27;;;0.95;;
70067;SDS011;57425;51.616;6.680;2023-07-29T02:30:36;3.05;;;1.17;;
70067;SDS011;57425;51.616;6.680;2023-07-29T02:33:06;1.23;;;0.98;;
70067;SDS011;57425;51.616;6.680;2023-07-29T02:35:31;3.40;;;1.13;;
70067;SDS011;57425;51.616;6.680;2023-07-29T02:37:57;1.60;;;1.10;;
70067;SDS011;57425;51.616;6.680;2023-07-29T02:40:22;6.35;;;1.05;;
70067;SDS011;57425;51.616;6.680;2023-07-29T02:42:50;1.55;;;1.13;;
70067;SDS011;57425;51.616;6.680;2023-07-29T02:45:15;1.48;;;0.95;;
70067;SDS011;57425;51.616;6.680;2023-07-29T02:47:41;2.38;;;0.88;;
70067;SDS011;57425;51.616;6.680;2023-07-29T02:50:07;1.90;;;1.20;;
70067;SDS011;57425;51.616;6.680;2023-07-29T02:52:32;2.38;;;1.05;;
70067;SDS011;57425;51.616;6.680;2023-07-29T02:54:58;1.48;;;1.15;;
70067;SDS011;57425;51.616;6.680;2023-07-29T02:57:24;1.13;;;1.00;;
70067;SDS011;57425;51.616;6.680;2023-07-29T02:59:49;3.63;;;1.17;;
70067;SDS011;57425;51.616;6.680;2023-07-29T03:02:15;3.75;;;0.73;;
70067;SDS011;57425;51.616;6.680;2023-07-29T03:04:41;1.33;;;1.15;;
70067;SDS011;57425;51.616;6.680;2023-07-29T03:07:06;1.70;;;1.10;;
70067;SDS011;57425;51.616;6.680;2023-07-29T03:09:32;3.50;;;1.42;;
70067;SDS011;57425;51.616;6.680;2023-07-29T03:11:58;2.00;;;1.15;;
70067;SDS011;57425;51.616;6.680;2023-07-29T03:14:24;1.65;;;1.45;;
70067;SDS011;57425;51.616;6.680;2023-07-29T03:16:50;1.27;;;0.70;;
70067;SDS011;57425;51.616;6.680;2023-07-29T03:19:15;3.22;;;1.30;;
70067;SDS011;57425;51.616;6.680;2023-07-29T03:21:41;1.42;;;0.95;;
70067;SDS011;57425;51.616;6.680;2023-07-29T03:24:07;2.25;;;1.63;;
70067;SDS011;57425;51.616;6.680;2023-07-29T03:26:32;2.45;;;1.17;;
70067;SDS011;57425;51.616;6.680;2023-07-29T03:28:58;2.45;;;1.30;;
70067;SDS011;57425;51.616;6.680;2023-07-29T03:31:23;2.25;;;1.17;;
70067;SDS011;57425;51.616;6.680;2023-07-29T03:33:49;1.60;;;1.30;;
70067;SDS011;57425;51.616;6.680;2023-07-29T03:36:15;2.95;;;1.45;;
70067;SDS011;57425;51.616;6.680;2023-07-29T03:38:40;4.15;;;1.50;;
70067;SDS011;57425;51.616;6.680;2023-07-29T03:41:07;1.23;;;1.10;;
70067;SDS011;57425;51.616;6.680;2023-07-29T03:43:33;3.50;;;1.55;;
70067;SDS011;57425;51.616;6.680;2023-07-29T03:45:59;1.83;;;1.25;;
70067;SDS011;57425;51.616;6.680;2023-07-29T03:48:25;1.70;;;1.10;;
70067;SDS011;57425;51.616;6.680;2023-07-29T03:50:51;2.05;;;1.20;;
70067;SDS011;57425;51.616;6.680;2023-07-29T03:53:16;1.45;;;0.90;;
70067;SDS011;57425;51.616;6.680;2023-07-29T03:55:42;1.80;;;1.20;;
70067;SDS011;57425;51.616;6.680;2023-07-29T03:58:08;2.03;;;1.20;;
70067;SDS011;57425;51.616;6.680;2023-07-29T04:00:33;3.05;;;1.60;;
70067;SDS011;57425;51.616;6.680;2023-07-29T04:02:59;4.10;;;1.20;;
70067;SDS011;57425;51.616;6.680;2023-07-29T04:05:25;4.35;;;1.40;;
70067;SDS011;57425;51.616;6.680;2023-07-29T04:07:50;4.43;;;1.45;;
70067;SDS011;57425;51.616;6.680;2023-07-29T04:10:17;4.45;;;1.35;;
70067;SDS011;57425;51.616;6.680;2023-07-29T04:12:43;2.70;;;1.48;;
70067;SDS011;57425;51.616;6.680;2023-07-29T04:15:08;1.40;;;1.13;;
70067;SDS011;57425;51.616;6.680;2023-07-29T04:17:34;1.80;;;1.35;;
70067;SDS011;57425;51.616;6.680;2023-07-29T04:20:00;2.65;;;1.52;;
70067;SDS011;57425;51.616;6.680;2023-07-29T04:22:25;2.10;;;1.35;;
70067;SDS011;57425;51.616;6.680;2023-07-29T04:24:51;5.32;;;1.60;;
70067;SDS011;57425;51.616;6.680;2023-07-29T04:27:16;2.03;;;1.70;;
70067;SDS011;57425;51.616;6.680;2023-07-29T04:29:42;5.72;;;1.90;;
70067;SDS011;57425;51.616;6.680;2023-07-29T04:32:07;2.65;;;1.83;;
70067;SDS011;57425;51.616;6.680;2023-07-29T04:34:33;2.10;;;1.75;;
70067;SDS011;57425;51.616;6.680;2023-07-29T04:36:59;1.95;;;1.52;;
70067;SDS011;57425;51.616;6.680;2023-07-29T04:39:24;2.22;;;1.77;;
70067;SDS011;57425;51.616;6.680;2023-07-29T04:41:50;5.47;;;2.15;;
70067;SDS011;57425;51.616;6.680;2023-07-29T04:44:16;3.10;;;2.60;;
70067;SDS011;57425;51.616;6.680;2023-07-29T04:46:41;5.00;;;2.22;;
70067;SDS011;57425;51.616;6.680;2023-07-29T04:49:07;3.33;;;1.70;;
70067;SDS011;57425;51.616;6.680;2023-07-29T04:51:33;5.53;;;2.42;;
70067;SDS011;57425;51.616;6.680;2023-07-29T04:53:58;3.58;;;2.42;;
70067;SDS011;57425;51.616;6.680;2023-07-29T04:56:24;3.90;;;2.20;;
70067;SDS011;57425;51.616;6.680;2023-07-29T04:58:50;4.20;;;2.33;;
70067;SDS011;57425;51.616;6.680;2023-07-29T05:01:16;4.22;;;2.50;;
70067;SDS011;57425;51.616;6.680;2023-07-29T05:03:41;4.55;;;2.30;;
70067;SDS011;57425;51.616;6.680;2023-07-29T05:06:07;5.05;;;2.28;;
70067;SDS011;57425;51.616;6.680;2023-07-29T05:08:33;3.78;;;2.30;;
70067;SDS011;57425;51.616;6.680;2023-07-29T05:10:58;3.40;;;2.35;;
70067;SDS011;57425;51.616;6.680;2023-07-29T05:13:24;4.38;;;2.20;;
70067;SDS011;57425;51.616;6.680;2023-07-29T05:15:50;2.67;;;1.85;;
70067;SDS011;57425;51.616;6.680;2023-07-29T05:18:16;2.97;;;2.10;;
70067;SDS011;57425;51.616;6.680;2023-07-29T05:20:42;5.22;;;2.33;;
70067;SDS011;57425;51.616;6.680;2023-07-29T05:23:07;4.68;;;1.95;;
70067;SDS011;57425;51.616;6.680;2023-07-29T05:25:33;5.25;;;1.80;;
70067;SDS011;57425;51.616;6.680;2023-07-29T05:28:02;2.67;;;1.80;;
70067;SDS011;57425;51.616;6.680;2023-07-29T05:30:28;2.38;;;1.38;;
70067;SDS011;57425;51.616;6.680;2023-07-29T05:32:59;2.05;;;1.42;;
70067;SDS011;57425;51.616;6.680;2023-07-29T05:35:25;4.32;;;2.00;;
70067;SDS011;57425;51.616;6.680;2023-07-29T05:37:51;2.83;;;1.70;;
70067;SDS011;57425;51.616;6.680;2023-07-29T05:40:17;3.85;;;1.35;;
70067;SDS011;57425;51.616;6.680;2023-07-29T05:42:42;5.82;;;1.60;;
70067;SDS011;57425;51.616;6.680;2023-07-29T05:45:10;1.77;;;1.15;;
70067;SDS011;57425;51.616;6.680;2023-07-29T05:47:35;7.43;;;1.63;;
70067;SDS011;57425;51.616;6.680;2023-07-29T05:50:01;1.70;;;1.20;;
70067;SDS011;57425;51.616;6.680;2023-07-29T05:52:29;2.30;;;1.45;;
70067;SDS011;57425;51.616;6.680;2023-07-29T05:54:55;1.88;;;1.23;;
70067;SDS011;57425;51.616;6.680;2023-07-29T05:57:21;1.83;;;1.15;;
70067;SDS011;57425;51.616;6.680;2023-07-29T05:59:46;1.75;;;1.00;;
70067;SDS011;57425;51.616;6.680;2023-07-29T06:02:12;3.38;;;1.50;;
70067;SDS011;57425;51.616;6.680;2023-07-29T06:04:38;1.98;;;1.23;;
70067;SDS011;57425;51.616;6.680;2023-07-29T06:07:03;1.98;;;1.35;;
70067;SDS011;57425;51.616;6.680;2023-07-29T06:09:30;3.47;;;1.50;;
70067;SDS011;57425;51.616;6.680;2023-07-29T06:11:55;2.03;;;1.17;;
70067;SDS011;57425;51.616;6.680;2023-07-29T06:14:21;3.30;;;1.55;;
70067;SDS011;57425;51.616;6.680;2023-07-29T06:16:46;2.78;;;1.60;;
70067;SDS011;57425;51.616;6.680;2023-07-29T06:19:12;2.22;;;1.38;;
70067;SDS011;57425;51.616;6.680;2023-07-29T06:21:38;1.92;;;1.17;;
70067;SDS011;57425;51.616;6.680;2023-07-29T06:24:04;1.88;;;1.33;;
70067;SDS011;57425;51.616;6.680;2023-07-29T06:26:29;3.05;;;1.50;;
70067;SDS011;57425;51.616;6.680;2023-07-29T06:28:55;9.35;;;1.92;;
70067;SDS011;57425;51.616;6.680;2023-07-29T06:31:20;3.72;;;1.20;;
70067;SDS011;57425;51.616;6.680;2023-07-29T06:33:46;1.40;;;1.20;;
70067;SDS011;57425;51.616;6.680;2023-07-29T06:36:11;2.53;;;1.20;;
70067;SDS011;57425;51.616;6.680;2023-07-29T06:38:37;1.85;;;1.13;;
70067;SDS011;57425;51.616;6.680;2023-07-29T06:41:03;2.50;;;1.20;;
70067;SDS011;57425;51.616;6.680;2023-07-29T06:43:30;6.60;;;1.10;;
70067;SDS011;57425;51.616;6.680;2023-07-29T06:45:55;3.80;;;1.25;;
70067;SDS011;57425;51.616;6.680;2023-07-29T06:48:21;1.52;;;1.40;;
70067;SDS011;57425;51.616;6.680;2023-07-29T06:50:47;1.73;;;1.17;;
70067;SDS011;57425;51.616;6.680;2023-07-29T06:53:12;5.38;;;1.73;;
70067;SDS011;57425;51.616;6.680;2023-07-29T06:55:38;2.13;;;1.08;;
70067;SDS011;57425;51.616;6.680;2023-07-29T06:58:04;2.92;;;0.90;;
70067;SDS011;57425;51.616;6.680;2023-07-29T07:00:30;1.88;;;1.13;;
70067;SDS011;57425;51.616;6.680;2023-07-29T07:02:55;2.08;;;1.17;;
70067;SDS011;57425;51.616;6.680;2023-07-29T07:05:21;3.60;;;1.08;;
70067;SDS011;57425;51.616;6.680;2023-07-29T07:07:46;2.35;;;1.25;;
70067;SDS011;57425;51.616;6.680;2023-07-29T07:10:14;1.75;;;1.02;;
70067;SDS011;57425;51.616;6.680;2023-07-29T07:12:40;1.77;;;1.10;;
70067;SDS011;57425;51.616;6.680;2023-07-29T07:15:05;1.00;;;0.80;;
70067;SDS011;57425;51.616;6.680;2023-07-29T07:17:32;2.03;;;1.20;;
70067;SDS011;57425;51.616;6.680;2023-07-29T07:19:57;3.00;;;1.05;;
70067;SDS011;57425;51.616;6.680;2023-07-29T07:22:23;1.88;;;1.02;;
70067;SDS011;57425;51.616;6.680;2023-07-29T07:24:49;5.20;;;1.27;;
70067;SDS011;57425;51.616;6.680;2023-07-29T07:27:14;2.83;;;1.48;;
70067;SDS011;57425;51.616;6.680;2023-07-29T07:29:40;1.02;;;0.90;;
70067;SDS011;57425;51.616;6.680;2023-07-29T07:32:05;1.65;;;0.98;;
70067;SDS011;57425;51.616;6.680;2023-07-29T07:34:31;0.80;;;0.50;;
70067;SDS011;57425;51.616;6.680;2023-07-29T07:36:58;1.25;;;0.90;;
70067;SDS011;57425;51.616;6.680;2023-07-29T07:39:24;1.02;;;0.90;;
70067;SDS011;57425;51.616;6.680;2023-07-29T07:41:49;4.30;;;1.15;;
70067;SDS011;57425;51.616;6.680;2023-07-29T07:44:15;1.48;;;1.00;;
70067;SDS011;57425;51.616;6.680;2023-07-29T07:46:42;1.30;;;1.00;;
70067;SDS011;57425;51.616;6.680;2023-07-29T07:49:08;1.25;;;0.50;;
70067;SDS011;57425;51.616;6.680;2023-07-29T07:51:34;1.48;;;0.90;;
70067;SDS011;57425;51.616;6.680;2023-07-29T07:54:00;1.75;;;1.20;;
70067;SDS011;57425;51.616;6.680;2023-07-29T07:56:25;1.05;;;0.82;;
70067;SDS011;57425;51.616;6.680;2023-07-29T07:58:51;1.65;;;0.90;;
70067;SDS011;57425;51.616;6.680;2023-07-29T08:01:16;4.38;;;0.75;;
70067;SDS011;57425;51.616;6.680;2023-07-29T08:03:42;0.90;;;0.68;;
70067;SDS011;57425;51.616;6.680;2023-07-29T08:06:07;0.98;;;0.65;;
70067;SDS011;57425;51.616;6.680;2023-07-29T08:08:33;2.13;;;0.82;;
70067;SDS011;57425;51.616;6.680;2023-07-29T08:10:59;1.80;;;1.02;;
70067;SDS011;57425;51.616;6.680;2023-07-29T08:13:24;1.25;;;0.90;;
70067;SDS011;57425;51.616;6.680;2023-07-29T08:15:50;2.50;;;0.90;;
70067;SDS011;57425;51.616;6.680;2023-07-29T08:18:17;0.73;;;0.57;;
70067;SDS011;57425;51.616;6.680;2023-07-29T08:20:56;1.75;;;1.10;;
70067;SDS011;57425;51.616;6.680;2023-07-29T08:23:26;0.80;;;0.60;;
70067;SDS011;57425;51.616;6.680;2023-07-29T08:25:54;1.08;;;0.70;;
70067;SDS011;57425;51.616;6.680;2023-07-29T08:28:26;0.60;;;0.50;;
70067;SDS011;57425;51.616;6.680;2023-07-29T08:30:56;2.10;;;0.32;;
70067;SDS011;57425;51.616;6.680;2023-07-29T08:33:22;2.78;;;0.73;;
70067;SDS011;57425;51.616;6.680;2023-07-29T08:35:48;2.05;;;0.70;;
70067;SDS011;57425;51.616;6.680;2023-07-29T08:38:13;0.35;;;0.32;;
70067;SDS011;57425;51.616;6.680;2023-07-29T08:40:43;1.50;;;0.82;;
70067;SDS011;57425;51.616;6.680;2023-07-29T08:43:14;1.48;;;0.70;;
70067;SDS011;57425;51.616;6.680;2023-07-29T08:45:43;1.58;;;0.60;;
70067;SDS011;57425;51.616;6.680;2023-07-29T08:48:09;1.52;;;1.10;;
70067;SDS011;57425;51.616;6.680;2023-07-29T08:50:36;0.57;;;0.55;;
70067;SDS011;57425;51.616;6.680;2023-07-29T08:53:03;1.45;;;0.80;;
70067;SDS011;57425;51.616;6.680;2023-07-29T08:55:31;1.50;;;0.80;;
70067;SDS011;57425;51.616;6.680;2023-07-29T08:57:57;0.60;;;0.50;;
70067;SDS011;57425;51.616;6.680;2023-07-29T09:00:25;1.30;;;0.70;;
70067;SDS011;57425;51.616;6.680;2023-07-29T09:02:51;1.30;;;0.77;;
70067;SDS011;57425;51.616;6.680;2023-07-29T09:05:16;0.73;;;0.70;;
70067;SDS011;57425;51.616;6.680;2023-07-29T09:07:43;3.63;;;0.75;;
70067;SDS011;57425;51.616;6.680;2023-07-29T09:10:10;1.05;;;0.60;;
70067;SDS011;57425;51.616;6.680;2023-07-29T09:12:38;0.57;;;0.50;;
70067;SDS011;57425;51.616;6.680;2023-07-29T09:15:04;1.27;;;0.80;;
70067;SDS011;57425;51.616;6.680;2023-07-29T09:17:33;1.27;;;0.85;;
70067;SDS011;57425;51.616;6.680;2023-07-29T09:19:59;1.92;;;1.05;;
70067;SDS011;57425;51.616;6.680;2023-07-29T09:22:26;1.63;;;0.90;;
70067;SDS011;57425;51.616;6.680;2023-07-29T09:24:52;1.90;;;0.98;;
70067;SDS011;57425;51.616;6.680;2023-07-29T09:27:26;3.13;;;0.85;;
70067;SDS011;57425;51.616;6.680;2023-07-29T09:29:52;1.08;;;0.75;;
70067;SDS011;57425;51.616;6.680;2023-07-29T09:32:19;2.67;;;0.93;;
70067;SDS011;57425;51.616;6.680;2023-07-29T09:34:46;1.38;;;0.80;;
70067;SDS011;57425;51.616;6.680;2023-07-29T09:37:16;2.00;;;0.93;;
70067;SDS011;57425;51.616;6.680;2023-07-29T09:39:46;0.82;;;0.63;;
70067;SDS011;57425;51.616;6.680;2023-07-29T09:42:18;1.05;;;0.63;;
70067;SDS011;57425;51.616;6.680;2023-07-29T09:44:45;1.25;;;0.70;;
70067;SDS011;57425;51.616;6.680;2023-07-29T09:47:18;3.50;;;1.02;;
70067;SDS011;57425;51.616;6.680;2023-07-29T09:49:45;1.52;;;0.80;;
70067;SDS011;57425;51.616;6.680;2023-07-29T09:52:11;2.17;;;0.95;;
70067;SDS011;57425;51.616;6.680;2023-07-29T09:54:37;1.75;;;0.82;;
70067;SDS011;57425;51.616;6.680;2023-07-29T09:57:03;1.25;;;0.82;;
70067;SDS011;57425;51.616;6.680;2023-07-29T09:59:33;1.33;;;0.70;;
70067;SDS011;57425;51.616;6.680;2023-07-29T10:01:59;1.02;;;0.70;;
70067;SDS011;57425;51.616;6.680;2023-07-29T10:04:25;11.90;;;1.23;;
70067;SDS011;57425;51.616;6.680;2023-07-29T10:06:52;2.50;;;0.68;;
70067;SDS011;57425;51.616;6.680;2023-07-29T10:09:18;1.08;;;0.80;;
70067;SDS011;57425;51.616;6.680;2023-07-29T10:11:46;1.25;;;0.60;;
70067;SDS011;57425;51.616;6.680;2023-07-29T10:14:12;0.90;;;0.70;;
70067;SDS011;57425;51.616;6.680;2023-07-29T10:16:40;0.73;;;0.73;;
70067;SDS011;57425;51.616;6.680;2023-07-29T10:19:07;1.38;;;0.80;;
70067;SDS011;57425;51.616;6.680;2023-07-29T10:21:32;1.63;;;0.95;;
70067;SDS011;57425;51.616;6.680;2023-07-29T10:24:01;1.00;;;0.70;;
70067;SDS011;57425;51.616;6.680;2023-07-29T10:26:31;1.60;;;0.88;;
70067;SDS011;57425;51.616;6.680;2023-07-29T10:28:59;1.73;;;0.70;;
70067;SDS011;57425;51.616;6.680;2023-07-29T10:31:29;1.63;;;0.70;;
70067;SDS011;57425;51.616;6.680;2023-07-29T10:33:56;1.35;;;0.70;;
70067;SDS011;57425;51.616;6.680;2023-07-29T10:36:22;0.63;;;0.63;;
70067;SDS011;57425;51.616;6.680;2023-07-29T10:38:49;1.25;;;0.60;;
70067;SDS011;57425;51.616;6.680;2023-07-29T10:41:15;1.00;;;0.60;;
70067;SDS011;57425;51.616;6.680;2023-07-29T10:43:40;0.95;;;0.80;;
70067;SDS011;57425;51.616;6.680;2023-07-29T10:46:15;0.60;;;0.52;;
70067;SDS011;57425;51.616;6.680;2023-07-29T10:48:43;0.93;;;0.73;;
70067;SDS011;57425;51.616;6.680;2023-07-29T10:53:58;1.02;;;0.47;;
70067;SDS011;57425;51.616;6.680;2023-07-29T10:56:43;0.73;;;0.40;;
70067;SDS011;57425;51.616;6.680;2023-07-29T11:01:42;1.77;;;0.65;;
70067;SDS011;57425;51.616;6.680;2023-07-29T11:10:14;0.60;;;0.50;;
70067;SDS011;57425;51.616;6.680;2023-07-29T11:17:36;1.42;;;0.70;;
70067;SDS011;57425;51.616;6.680;2023-07-29T11:20:05;1.05;;;0.73;;
70067;SDS011;57425;51.616;6.680;2023-07-29T11:22:32;0.57;;;0.55;;
70067;SDS011;57425;51.616;6.680;2023-07-29T11:24:58;0.70;;;0.60;;
70067;SDS011;57425;51.616;6.680;2023-07-29T11:27:24;0.47;;;0.40;;
70067;SDS011;57425;51.616;6.680;2023-07-29T11:29:50;0.40;;;0.40;;
70067;SDS011;57425;51.616;6.680;2023-07-29T11:32:15;2.22;;;0.50;;
70067;SDS011;57425;51.616;6.680;2023-07-29T11:34:42;1.70;;;0.30;;
70067;SDS011;57425;51.616;6.680;2023-07-29T11:37:10;0.68;;;0.50;;
70067;SDS011;57425;51.616;6.680;2023-07-29T11:39:40;3.58;;;1.05;;
70067;SDS011;57425;51.616;6.680;2023-07-29T11:42:06;0.75;;;0.50;;
70067;SDS011;57425;51.616;6.680;2023-07-29T11:44:35;0.82;;;0.65;;
70067;SDS011;57425;51.616;6.680;2023-07-29T11:47:01;5.57;;;1.10;;
70067;SDS011;57425;51.616;6.680;2023-07-29T11:49:27;1.27;;;0.70;;
70067;SDS011;57425;51.616;6.680;2023-07-29T11:51:53;1.17;;;0.68;;
70067;SDS011;57425;51.616;6.680;2023-07-29T11:54:18;0.73;;;0.60;;
70067;SDS011;57425;51.616;6.680;2023-07-29T11:56:46;4.22;;;1.20;;
70067;SDS011;57425;51.616;6.680;2023-07-29T11:59:13;0.88;;;0.63;;
70067;SDS011;57425;51.616;6.680;2023-07-29T12:01:39;1.13;;;0.75;;
70067;SDS011;57425;51.616;6.680;2023-07-29T12:04:05;1.05;;;0.70;;
70067;SDS011;57425;51.616;6.680;2023-07-29T12:06:31;1.02;;;0.70;;
70067;SDS011;57425;51.616;6.680;2023-07-29T12:08:57;1.13;;;0.70;;
70067;SDS011;57425;51.616;6.680;2023-07-29T12:11:23;1.02;;;0.50;;
70067;SDS011;57425;51.616;6.680;2023-07-29T12:13:48;1.63;;;0.63;;
70067;SDS011;57425;51.616;6.680;2023-07-29T12:16:17;1.73;;;0.65;;
70067;SDS011;57425;51.616;6.680;2023-07-29T12:18:43;4.80;;;0.70;;
70067;SDS011;57425;51.616;6.680;2023-07-29T12:21:09;1.05;;;0.77;;
70067;SDS011;57425;51.616;6.680;2023-07-29T12:23:34;1.08;;;0.70;;
70067;SDS011;57425;51.616;6.680;2023-07-29T12:26:01;2.25;;;0.95;;
70067;SDS011;57425;51.616;6.680;2023-07-29T12:28:27;0.70;;;0.60;;
70067;SDS011;57425;51.616;6.680;2023-07-29T12:30:55;3.00;;;1.02;;
70067;SDS011;57425;51.616;6.680;2023-07-29T12:35:56;2.13;;;0.95;;
70067;SDS011;57425;51.616;6.680;2023-07-29T12:38:22;1.88;;;0.80;;
70067;SDS011;57425;51.616;6.680;2023-07-29T12:40:48;1.00;;;0.68;;
70067;SDS011;57425;51.616;6.680;2023-07-29T12:43:13;1.40;;;0.88;;
70067;SDS011;57425;51.616;6.680;2023-07-29T12:45:39;1.27;;;0.93;;
70067;SDS011;57425;51.616;6.680;2023-07-29T12:48:06;1.63;;;0.93;;
70067;SDS011;57425;51.616;6.680;2023-07-29T12:50:32;1.17;;;0.80;;
70067;SDS011;57425;51.616;6.680;2023-07-29T12:52:58;1.10;;;0.80;;
70067;SDS011;57425;51.616;6.680;2023-07-29T12:55:23;1.60;;;1.00;;
70067;SDS011;57425;51.616;6.680;2023-07-29T12:57:49;0.75;;;0.57;;
70067;SDS011;57425;51.616;6.680;2023-07-29T13:00:15;1.23;;;0.93;;
70067;SDS011;57425;51.616;6.680;2023-07-29T13:02:40;4.53;;;0.95;;
70067;SDS011;57425;51.616;6.680;2023-07-29T13:05:08;3.72;;;1.17;;
70067;SDS011;57425;51.616;6.680;2023-07-29T13:07:39;1.63;;;0.90;;
70067;SDS011;57425;51.616;6.680;2023-07-29T13:10:05;1.60;;;0.90;;
70067;SDS011;57425;51.616;6.680;2023-07-29T13:12:31;0.88;;;0.73;;
70067;SDS011;57425;51.616;6.680;2023-07-29T13:14:57;1.17;;;0.70;;
70067;SDS011;57425;51.616;6.680;2023-07-29T13:17:22;6.80;;;1.77;;
70067;SDS011;57425;51.616;6.680;2023-07-29T13:19:48;1.70;;;0.82;;
70067;SDS011;57425;51.616;6.680;2023-07-29T13:22:14;1.38;;;1.23;;
70067;SDS011;57425;51.616;6.680;2023-07-29T13:24:39;1.45;;;0.98;;
70067;SDS011;57425;51.616;6.680;2023-07-29T13:27:05;2.40;;;1.27;;
70067;SDS011;57425;51.616;6.680;2023-07-29T13:29:31;6.15;;;1.00;;
70067;SDS011;57425;51.616;6.680;2023-07-29T13:31:56;5.07;;;1.42;;
70067;SDS011;57425;51.616;6.680;2023-07-29T13:34:22;2.05;;;1.00;;
70067;SDS011;57425;51.616;6.680;2023-07-29T13:36:48;3.58;;;0.90;;
70067;SDS011;57425;51.616;6.680;2023-07-29T13:39:13;6.95;;;0.55;;
70067;SDS011;57425;51.616;6.680;2023-07-29T13:41:39;1.15;;;0.40;;
70067;SDS011;57425;51.616;6.680;2023-07-29T13:44:04;1.88;;;1.10;;
70067;SDS011;57425;51.616;6.680;2023-07-29T13:46:30;2.03;;;0.73;;
70067;SDS011;57425;51.616;6.680;2023-07-29T13:48:55;3.90;;;0.50;;
70067;SDS011;57425;51.616;6.680;2023-07-29T13:51:21;7.30;;;0.80;;
70067;SDS011;57425;51.616;6.680;2023-07-29T13:53:47;0.60;;;0.50;;
70067;SDS011;57425;51.616;6.680;2023-07-29T13:56:12;0.32;;;0.32;;
70067;SDS011;57425;51.616;6.680;2023-07-29T13:58:38;2.83;;;0.40;;
70067;SDS011;57425;51.616;6.680;2023-07-29T14:01:03;1.27;;;0.45;;
70067;SDS011;57425;51.616;6.680;2023-07-29T14:03:29;0.95;;;0.60;;
70067;SDS011;57425;51.616;6.680;2023-07-29T14:05:54;2.70;;;0.30;;
70067;SDS011;57425;51.616;6.680;2023-07-29T14:08:20;0.63;;;0.60;;
70067;SDS011;57425;51.616;6.680;2023-07-29T14:10:48;0.88;;;0.50;;
70067;SDS011;57425;51.616;6.680;2023-07-29T14:13:14;0.60;;;0.50;;
70067;SDS011;57425;51.616;6.680;2023-07-29T14:15:40;0.55;;;0.50;;
70067;SDS011;57425;51.616;6.680;2023-07-29T14:18:05;2.22;;;0.75;;
70067;SDS011;57425;51.616;6.680;2023-07-29T14:20:31;0.70;;;0.50;;
70067;SDS011;57425;51.616;6.680;2023-07-29T14:22:57;0.95;;;0.45;;
70067;SDS011;57425;51.616;6.680;2023-07-29T14:25:23;2.85;;;0.60;;
70067;SDS011;57425;51.616;6.680;2023-07-29T14:27:49;1.45;;;0.50;;
70067;SDS011;57425;51.616;6.680;2023-07-29T14:30:14;0.40;;;0.40;;
70067;SDS011;57425;51.616;6.680;2023-07-29T14:32:40;0.77;;;0.65;;
70067;SDS011;57425;51.616;6.680;2023-07-29T14:35:05;5.25;;;0.85;;
70067;SDS011;57425;51.616;6.680;2023-07-29T14:37:32;1.80;;;0.52;;
70067;SDS011;57425;51.616;6.680;2023-07-29T14:40:04;1.23;;;0.75;;
70067;SDS011;57425;51.616;6.680;2023-07-29T14:42:30;0.70;;;0.50;;
70067;SDS011;57425;51.616;6.680;2023-07-29T14:44:56;0.68;;;0.60;;
70067;SDS011;57425;51.616;6.680;2023-07-29T14:47:21;5.95;;;0.80;;
70067;SDS011;57425;51.616;6.680;2023-07-29T14:49:47;0.85;;;0.50;;
70067;SDS011;57425;51.616;6.680;2023-07-29T14:52:13;0.50;;;0.50;;
70067;SDS011;57425;51.616;6.680;2023-07-29T14:54:38;0.68;;;0.63;;
70067;SDS011;57425;51.616;6.680;2023-07-29T14:57:05;0.85;;;0.60;;
70067;SDS011;57425;51.616;6.680;2023-07-29T14:59:32;2.45;;;0.45;;
70067;SDS011;57425;51.616;6.680;2023-07-29T15:01:57;4.47;;;0.90;;
70067;SDS011;57425;51.616;6.680;2023-07-29T15:04:23;0.85;;;0.80;;